createdAt,value
2018-03-16T00:01:06.576Z,79.20
2018-03-16T00:03:34.237Z,79.60
2018-03-16T00:06:02.080Z,79.30
2018-03-16T00:08:30.493Z,79.00
2018-03-16T00:10:58.152Z,79.40
2018-03-16T00:13:26.058Z,79.50
2018-03-16T00:15:53.716Z,80.40
2018-03-16T00:18:21.949Z,79.80
2018-03-16T00:20:49.605Z,80.10
2018-03-16T00:23:17.223Z,79.10
2018-03-16T00:25:44.884Z,80.10
2018-03-16T00:28:12.497Z,78.80
2018-03-16T00:30:40.113Z,80.10
2018-03-16T00:33:09.245Z,78.90
2018-03-16T00:35:36.902Z,79.10
2018-03-16T00:38:04.606Z,79.30
2018-03-16T00:40:32.373Z,78.40
2018-03-16T00:42:59.991Z,79.30
2018-03-16T00:45:27.657Z,80.10
2018-03-16T00:47:55.308Z,80.20
2018-03-16T00:50:22.925Z,80.70
2018-03-16T00:52:51.353Z,79.40
2018-03-16T00:55:19.009Z,79.60
2018-03-16T00:57:46.621Z,79.70
2018-03-16T01:00:14.280Z,80.00
2018-03-16T01:02:42.698Z,80.40
2018-03-16T01:05:10.305Z,80.30
2018-03-16T01:07:37.965Z,80.00
2018-03-16T01:10:05.581Z,80.80
2018-03-16T01:12:33.237Z,80.80
2018-03-16T01:15:00.889Z,80.80
2018-03-16T01:17:28.574Z,80.90
2018-03-16T01:19:56.233Z,81.10
2018-03-16T01:22:23.846Z,81.60
2018-03-16T01:24:51.790Z,81.50
2018-03-16T01:27:19.442Z,82.30
2018-03-16T01:29:47.378Z,82.60
2018-03-16T01:32:15.040Z,82.20
2018-03-16T01:34:42.697Z,82.30
2018-03-16T01:37:10.312Z,82.40
2018-03-16T01:39:38.679Z,82.00
2018-03-16T01:42:06.365Z,82.00
2018-03-16T01:44:34.584Z,82.00
2018-03-16T01:47:02.232Z,82.60
2018-03-16T01:49:29.888Z,82.50
2018-03-16T01:51:57.537Z,82.60
2018-03-16T01:54:25.910Z,83.20
2018-03-16T01:56:54.292Z,82.40
2018-03-16T01:59:22.713Z,83.20
2018-03-16T02:01:50.327Z,83.60
2018-03-16T02:04:17.941Z,83.10
2018-03-16T02:06:45.602Z,82.30
2018-03-16T02:09:13.260Z,82.40
2018-03-16T02:11:40.921Z,83.30
2018-03-16T02:14:08.541Z,81.70
2018-03-16T02:16:36.199Z,82.10
2018-03-16T02:19:03.827Z,82.90
2018-03-16T02:21:31.490Z,83.40
2018-03-16T02:23:59.109Z,83.70
2018-03-16T02:26:26.784Z,82.60
2018-03-16T02:28:54.464Z,81.70
2018-03-16T02:31:22.120Z,83.60
2018-03-16T02:33:50.499Z,82.10
2018-03-16T02:36:18.157Z,82.10
2018-03-16T02:38:45.836Z,83.00
2018-03-16T02:41:13.830Z,82.00
2018-03-16T02:43:41.450Z,81.90
2018-03-16T02:46:09.060Z,82.40
2018-03-16T02:48:36.717Z,82.50
2018-03-16T02:51:04.377Z,81.40
2018-03-16T02:53:32.856Z,81.50
2018-03-16T02:56:00.465Z,81.20
2018-03-16T02:58:28.122Z,80.90
2018-03-16T03:00:55.734Z,80.70
2018-03-16T03:03:23.341Z,81.30
2018-03-16T03:05:50.994Z,80.60
2018-03-16T03:08:18.653Z,81.20
2018-03-16T03:10:46.259Z,80.50
2018-03-16T03:13:13.912Z,81.30
2018-03-16T03:15:41.518Z,81.20
2018-03-16T03:18:11.016Z,81.00
2018-03-16T03:20:38.623Z,81.00
2018-03-16T03:23:06.283Z,80.60
2018-03-16T03:25:34.715Z,80.40
2018-03-16T03:28:02.376Z,80.60
2018-03-16T03:30:30.038Z,81.00
2018-03-16T03:32:57.789Z,81.40
2018-03-16T03:35:25.399Z,81.40
2018-03-16T03:37:53.772Z,81.00
2018-03-16T03:40:21.423Z,81.50
2018-03-16T03:42:49.037Z,80.90
2018-03-16T03:45:16.697Z,81.30
2018-03-16T03:47:44.313Z,80.60
2018-03-16T03:50:11.929Z,81.00
2018-03-16T03:52:39.576Z,80.90
2018-03-16T03:55:07.185Z,80.40
2018-03-16T03:57:34.839Z,81.10
2018-03-16T04:00:02.458Z,80.90
2018-03-16T04:02:30.121Z,81.40
2018-03-16T04:04:57.932Z,80.30
2018-03-16T04:07:25.585Z,79.00
2018-03-16T04:09:54.938Z,80.40
2018-03-16T04:12:22.552Z,80.20
2018-03-16T04:14:50.235Z,79.80
2018-03-16T04:17:18.450Z,80.40
2018-03-16T04:19:46.106Z,81.10
2018-03-16T04:22:13.857Z,80.10
2018-03-16T04:24:41.448Z,80.50
2018-03-16T04:27:09.057Z,81.10
2018-03-16T04:29:36.709Z,80.40
2018-03-16T04:32:04.381Z,79.20
2018-03-16T04:34:32.044Z,81.20
2018-03-16T04:36:59.655Z,81.20
2018-03-16T04:39:27.314Z,81.40
2018-03-16T04:41:54.968Z,80.20
2018-03-16T04:44:22.565Z,80.30
2018-03-16T04:46:51.185Z,79.00
2018-03-16T04:49:18.856Z,79.10
2018-03-16T04:51:46.696Z,78.90
2018-03-16T04:54:14.296Z,78.90
2018-03-16T04:56:42.972Z,79.80
2018-03-16T04:59:10.624Z,79.20
2018-03-16T05:01:38.228Z,76.90
2018-03-16T05:04:05.908Z,78.90
2018-03-16T05:06:33.567Z,77.90
2018-03-16T05:09:01.178Z,79.10
2018-03-16T05:11:28.926Z,78.40
2018-03-16T05:13:56.546Z,77.70
2018-03-16T05:16:24.196Z,77.00
2018-03-16T05:18:51.849Z,77.00
2018-03-16T05:21:20.261Z,77.00
2018-03-16T05:23:47.956Z,77.00
2018-03-16T05:26:15.605Z,77.60
2018-03-16T05:28:43.254Z,78.20
2018-03-16T05:31:10.869Z,78.00
2018-03-16T05:33:38.513Z,77.20
2018-03-16T05:36:06.464Z,75.00
2018-03-16T05:38:34.067Z,75.40
2018-03-16T05:41:01.722Z,75.00
2018-03-16T05:43:30.136Z,74.40
2018-03-16T05:45:57.791Z,75.70
2018-03-16T05:48:26.013Z,75.50
2018-03-16T05:50:53.693Z,75.30
2018-03-16T05:53:22.068Z,75.10
2018-03-16T05:55:50.519Z,75.30
2018-03-16T05:58:18.129Z,75.00
2018-03-16T06:00:45.893Z,74.20
2018-03-16T06:03:13.493Z,75.50
2018-03-16T06:05:41.161Z,75.30
2018-03-16T06:08:08.789Z,74.40
2018-03-16T06:10:36.467Z,73.70
2018-03-16T06:13:04.124Z,72.90
2018-03-16T06:15:31.728Z,73.70
2018-03-16T06:17:59.385Z,74.70
2018-03-16T06:20:27.148Z,75.20
2018-03-16T06:22:54.736Z,73.80
2018-03-16T06:25:22.359Z,74.30
2018-03-16T06:27:50.103Z,73.50
2018-03-16T06:30:17.766Z,74.30
2018-03-16T06:32:45.419Z,74.00
2018-03-16T06:35:13.077Z,73.20
2018-03-16T06:37:40.731Z,72.10
2018-03-16T06:40:08.609Z,71.90
2018-03-16T06:42:36.266Z,71.90
2018-03-16T06:45:04.073Z,72.30
2018-03-16T06:47:31.569Z,72.40
2018-03-16T06:49:59.180Z,70.00
2018-03-16T06:52:27.590Z,71.10
2018-03-16T06:54:55.197Z,71.30
2018-03-16T06:57:22.843Z,70.80
2018-03-16T06:59:50.505Z,71.50
2018-03-16T07:02:18.118Z,69.70
2018-03-16T07:04:45.786Z,70.00
2018-03-16T07:07:13.861Z,70.90
2018-03-16T07:09:41.472Z,71.00
2018-03-16T07:12:09.126Z,70.50
2018-03-16T07:14:36.861Z,70.70
2018-03-16T07:17:04.470Z,69.40
2018-03-16T07:19:32.112Z,70.40
2018-03-16T07:22:00.541Z,70.80
2018-03-16T07:24:28.144Z,70.90
2018-03-16T07:26:55.752Z,69.30
2018-03-16T07:29:23.412Z,71.40
2018-03-16T07:31:51.078Z,71.10
2018-03-16T07:34:18.680Z,71.00
2018-03-16T07:36:46.345Z,70.70
2018-03-16T07:39:14.010Z,71.30
2018-03-16T07:41:41.628Z,70.50
2018-03-16T07:44:09.295Z,69.50
2018-03-16T07:46:37.074Z,70.40
2018-03-16T07:49:04.728Z,70.30
2018-03-16T07:51:32.385Z,69.90
2018-03-16T07:53:59.996Z,70.50
2018-03-16T07:56:27.661Z,70.00
2018-03-16T07:58:55.317Z,70.40
2018-03-16T08:01:23.740Z,69.10
2018-03-16T08:03:51.377Z,67.90
2018-03-16T08:06:19.182Z,69.20
2018-03-16T08:08:46.858Z,68.70
2018-03-16T08:11:14.488Z,68.60
2018-03-16T08:13:42.156Z,67.40
2018-03-16T08:16:09.943Z,68.90
2018-03-16T08:18:37.572Z,67.90
2018-03-16T08:21:05.445Z,68.20
2018-03-16T08:23:33.097Z,68.80
2018-03-16T08:26:00.721Z,69.00
2018-03-16T08:28:28.330Z,68.10
2018-03-16T08:30:56.001Z,69.10
2018-03-16T08:33:24.396Z,67.00
2018-03-16T08:35:52.026Z,67.20
2018-03-16T08:38:19.677Z,66.20
2018-03-16T08:40:47.332Z,66.00
2018-03-16T08:43:14.932Z,67.30
2018-03-16T08:45:42.589Z,66.90
2018-03-16T08:48:10.518Z,65.40
2018-03-16T08:50:38.168Z,66.70
2018-03-16T08:53:06.062Z,66.90
2018-03-16T08:55:33.712Z,65.00
2018-03-16T08:58:01.382Z,66.90
2018-03-16T09:00:29.041Z,65.50
2018-03-16T09:02:56.716Z,65.70
2018-03-16T09:05:24.313Z,64.70
2018-03-16T09:07:51.969Z,65.40
2018-03-16T09:10:20.347Z,66.00
2018-03-16T09:12:47.960Z,62.70
2018-03-16T09:15:15.613Z,63.50
2018-03-16T09:17:43.233Z,62.20
2018-03-16T09:20:10.893Z,62.70
2018-03-16T09:22:38.496Z,62.10
2018-03-16T09:25:06.158Z,61.20
2018-03-16T09:27:34.616Z,61.40
2018-03-16T09:30:02.286Z,61.10
2018-03-16T09:32:29.903Z,60.90
2018-03-16T09:34:57.517Z,61.80
2018-03-16T09:37:25.174Z,61.40
2018-03-16T09:39:52.802Z,60.30
2018-03-16T09:42:20.461Z,58.50
2018-03-16T09:44:48.065Z,59.20
2018-03-16T09:47:17.292Z,58.40
2018-03-16T09:49:44.901Z,58.50
2018-03-16T09:52:12.554Z,57.90
2018-03-16T09:54:52.050Z,56.00
2018-03-16T09:57:19.884Z,56.60
2018-03-16T09:59:47.502Z,56.40
2018-03-16T10:02:15.392Z,57.50
2018-03-16T10:04:43.597Z,57.10
2018-03-16T10:07:11.265Z,56.40
2018-03-16T10:09:39.641Z,55.90
2018-03-16T10:12:08.086Z,54.90
2018-03-16T10:14:35.714Z,54.70
2018-03-16T10:17:03.370Z,54.30
2018-03-16T10:19:31.014Z,55.20
2018-03-16T10:21:58.625Z,55.00
2018-03-16T10:24:26.293Z,55.70
2018-03-16T10:26:54.673Z,55.70
2018-03-16T10:29:22.336Z,54.90
2018-03-16T10:31:50.010Z,54.40
2018-03-16T10:34:17.676Z,56.00
2018-03-16T10:36:45.337Z,56.60
2018-03-16T10:39:13.711Z,55.70
2018-03-16T10:41:42.098Z,53.60
2018-03-16T10:44:10.530Z,52.40
2018-03-16T10:46:38.183Z,53.60
2018-03-16T10:49:05.797Z,53.60
2018-03-16T10:51:33.453Z,54.00
2018-03-16T10:54:01.841Z,54.00
2018-03-16T10:56:29.503Z,55.00
2018-03-16T10:58:57.119Z,54.50
2018-03-16T11:01:24.776Z,53.90
2018-03-16T11:03:52.419Z,53.80
2018-03-16T11:06:25.745Z,54.40
2018-03-16T11:08:53.412Z,54.90
2018-03-16T11:11:21.020Z,52.70
2018-03-16T11:13:48.678Z,56.00
2018-03-16T11:16:16.297Z,54.60
2018-03-16T11:18:43.997Z,53.00
2018-03-16T11:21:11.605Z,51.00
2018-03-16T11:23:39.253Z,52.90
2018-03-16T11:26:06.871Z,52.00
2018-03-16T11:28:34.525Z,52.90
2018-03-16T11:31:02.713Z,52.90
2018-03-16T11:33:30.392Z,52.40
2018-03-16T11:35:58.813Z,51.80
2018-03-16T11:38:27.199Z,51.70
2018-03-16T11:40:54.850Z,52.00
2018-03-16T11:43:23.551Z,53.30
2018-03-16T11:45:51.201Z,53.10
2018-03-16T11:48:19.581Z,49.00
2018-03-16T11:50:47.229Z,50.40
2018-03-16T11:53:14.846Z,49.30
2018-03-16T11:55:42.498Z,49.20
2018-03-16T11:58:12.160Z,50.50
2018-03-16T12:00:40.012Z,49.20
2018-03-16T12:03:07.681Z,49.40
2018-03-16T12:05:35.288Z,50.90
2018-03-16T12:08:02.958Z,50.00
2018-03-16T12:10:30.830Z,48.80
2018-03-16T12:12:58.514Z,49.90
2018-03-16T12:15:26.125Z,49.60
2018-03-16T12:17:53.779Z,49.40
2018-03-16T12:20:21.401Z,48.00
2018-03-16T12:22:49.069Z,47.70
2018-03-16T12:25:16.725Z,49.10
2018-03-16T12:27:44.374Z,48.40
2018-03-16T12:30:12.004Z,48.50
2018-03-16T12:32:39.660Z,47.90
2018-03-16T12:35:07.329Z,48.50
2018-03-16T12:37:35.625Z,48.80
2018-03-16T12:40:03.297Z,48.80
2018-03-16T12:44:58.510Z,49.80
2018-03-16T12:47:26.158Z,48.10
2018-03-16T12:49:53.831Z,49.20
2018-03-16T12:52:22.244Z,50.10
2018-03-16T12:54:50.158Z,49.20
2018-03-16T12:57:18.016Z,49.30
2018-03-16T12:59:45.637Z,49.90
2018-03-16T13:02:13.293Z,49.10
2018-03-16T13:04:40.897Z,46.30
2018-03-16T13:07:08.569Z,47.70
2018-03-16T13:09:36.192Z,48.80
2018-03-16T13:12:03.826Z,47.20
2018-03-16T13:14:32.046Z,46.20
2018-03-16T13:16:59.807Z,45.90
2018-03-16T13:19:27.468Z,49.60
2018-03-16T13:21:55.077Z,47.80
2018-03-16T13:24:22.741Z,47.30
2018-03-16T13:29:42.583Z,46.80
2018-03-16T13:32:10.260Z,46.20
2018-03-16T13:34:37.882Z,44.90
2018-03-16T13:37:05.533Z,44.80
2018-03-16T13:39:33.153Z,45.40
2018-03-16T13:42:00.813Z,45.20
2018-03-16T13:44:28.465Z,45.70
2018-03-16T13:46:56.115Z,44.40
2018-03-16T13:49:23.765Z,42.50
2018-03-16T13:51:51.412Z,43.50
2018-03-16T13:54:20.295Z,43.30
2018-03-16T13:56:47.943Z,45.00
2018-03-16T13:59:15.562Z,44.20
2018-03-16T14:01:43.221Z,44.20
2018-03-16T14:04:10.824Z,45.90
2018-03-16T14:06:38.697Z,45.10
2018-03-16T14:09:06.312Z,44.00
2018-03-16T14:11:34.159Z,45.00
2018-03-16T14:14:01.818Z,44.90
2018-03-16T14:18:54.637Z,45.40
2018-03-16T14:21:22.270Z,46.30
2018-03-16T14:23:49.929Z,46.00
2018-03-16T14:26:18.344Z,46.40
2018-03-16T14:28:45.969Z,45.00
2018-03-16T14:31:13.583Z,45.50
2018-03-16T14:33:42.006Z,45.50
2018-03-16T14:36:09.605Z,45.40
2018-03-16T14:38:37.231Z,45.40
2018-03-16T14:41:04.906Z,43.50
2018-03-16T14:43:33.201Z,43.70
2018-03-16T14:46:00.844Z,44.80
2018-03-16T14:48:28.453Z,43.50
2018-03-16T14:50:56.109Z,42.70
2018-03-16T14:53:23.973Z,43.80
2018-03-16T14:55:51.585Z,42.60
2018-03-16T14:58:19.254Z,42.40
2018-03-16T15:00:47.262Z,44.20
2018-03-16T15:03:14.886Z,43.00
2018-03-16T15:05:42.535Z,44.20
2018-03-16T15:08:11.241Z,43.60
2018-03-16T15:10:38.889Z,43.70
2018-03-16T15:13:06.502Z,43.80
2018-03-16T15:15:34.921Z,44.20
2018-03-16T15:18:02.529Z,44.20
2018-03-16T15:20:30.182Z,43.00
2018-03-16T15:22:58.294Z,42.20
2018-03-16T15:25:25.905Z,43.90
2018-03-16T15:27:53.556Z,42.80
2018-03-16T15:30:21.189Z,40.10
2018-03-16T15:32:48.860Z,41.60
2018-03-16T15:35:16.472Z,40.70
2018-03-16T15:37:44.094Z,42.70
2018-03-16T15:40:11.745Z,41.10
2018-03-16T15:42:39.433Z,42.20
2018-03-16T15:45:07.706Z,42.70
2018-03-16T15:47:35.321Z,43.00
2018-03-16T15:50:03.039Z,42.40
2018-03-16T15:52:30.855Z,42.30
2018-03-16T15:54:58.669Z,43.20
2018-03-16T15:57:26.469Z,43.40
2018-03-16T15:59:54.893Z,43.00
2018-03-16T16:02:22.549Z,43.10
2018-03-16T16:04:50.209Z,42.70
2018-03-16T16:07:17.812Z,42.30
2018-03-16T16:09:46.258Z,42.90
2018-03-16T16:12:13.875Z,43.50
2018-03-16T16:14:41.529Z,41.40
2018-03-16T16:17:09.189Z,42.70
2018-03-16T16:19:37.599Z,42.10
2018-03-16T16:22:05.465Z,40.40
2018-03-16T16:24:33.077Z,42.00
2018-03-16T16:27:01.493Z,42.00
2018-03-16T16:29:29.270Z,40.80
2018-03-16T16:31:56.924Z,41.50
2018-03-16T16:34:24.730Z,42.10
2018-03-16T16:36:53.337Z,42.50
2018-03-16T16:39:20.981Z,42.50
2018-03-16T16:41:48.593Z,42.80
2018-03-16T16:44:16.252Z,42.70
2018-03-16T16:46:43.921Z,43.80
2018-03-16T16:49:11.524Z,42.30
2018-03-16T16:51:39.172Z,42.50
2018-03-16T16:54:06.826Z,42.50
2018-03-16T16:56:34.482Z,43.80
2018-03-16T16:59:02.300Z,42.10
2018-03-16T17:01:29.986Z,41.90
2018-03-16T17:03:57.636Z,42.10
2018-03-16T17:06:25.304Z,41.80
2018-03-16T17:08:52.969Z,41.90
2018-03-16T17:11:20.581Z,41.90
2018-03-16T17:13:49.004Z,41.10
2018-03-16T17:16:16.673Z,41.10
2018-03-16T17:18:44.326Z,41.40
2018-03-16T17:21:11.998Z,43.00
2018-03-16T17:23:39.678Z,42.80
2018-03-16T17:26:07.826Z,40.80
2018-03-16T17:28:35.443Z,42.90
2018-03-16T17:31:03.053Z,41.20
2018-03-16T17:33:30.701Z,39.10
2018-03-16T17:35:59.273Z,42.50
2018-03-16T17:38:26.881Z,42.20
2018-03-16T17:40:55.312Z,42.50
2018-03-16T17:43:22.916Z,42.40
2018-03-16T17:45:50.561Z,42.00
2018-03-16T17:48:18.212Z,42.00
2018-03-16T17:50:45.817Z,43.20
2018-03-16T17:53:14.236Z,40.70
2018-03-16T17:55:41.841Z,41.00
2018-03-16T17:58:10.428Z,41.40
2018-03-16T18:00:38.041Z,41.20
2018-03-16T18:03:05.792Z,40.10
2018-03-16T18:05:33.554Z,40.10
2018-03-16T18:08:01.363Z,40.50
2018-03-16T18:10:29.024Z,41.60
2018-03-16T18:12:57.437Z,40.30
2018-03-16T18:15:25.758Z,40.30
2018-03-16T18:17:54.434Z,40.90
2018-03-16T18:20:22.108Z,40.80
2018-03-16T18:22:51.229Z,41.90
2018-03-16T18:25:19.656Z,42.20
2018-03-16T18:27:47.286Z,42.50
2018-03-16T18:30:15.177Z,41.80
2018-03-16T18:32:42.794Z,41.10
2018-03-16T18:35:10.412Z,41.80
2018-03-16T18:37:38.061Z,38.50
2018-03-16T18:40:05.697Z,36.70
2018-03-16T18:42:33.311Z,39.60
2018-03-16T18:45:01.053Z,39.80
2018-03-16T18:47:28.717Z,40.50
2018-03-16T18:49:56.463Z,40.50
2018-03-16T18:52:24.073Z,40.00
2018-03-16T18:54:51.724Z,39.80
2018-03-16T18:57:19.334Z,38.20
2018-03-16T18:59:46.945Z,40.30
2018-03-16T19:02:14.949Z,41.50
2018-03-16T19:04:42.553Z,41.80
2018-03-16T19:07:10.166Z,41.60
2018-03-16T19:09:37.817Z,40.40
2018-03-16T19:12:05.489Z,41.00
2018-03-16T19:14:33.092Z,41.70
2018-03-16T19:17:00.704Z,41.30
2018-03-16T19:19:28.844Z,41.10
2018-03-16T19:21:57.253Z,41.20
2018-03-16T19:24:25.142Z,41.10
2018-03-16T19:26:52.756Z,41.00
2018-03-16T19:29:20.373Z,42.20
2018-03-16T19:31:48.121Z,38.90
2018-03-16T19:34:15.728Z,40.50
2018-03-16T19:36:43.386Z,37.70
2018-03-16T19:39:11.004Z,39.80
2018-03-16T19:41:38.672Z,38.90
2018-03-16T19:44:06.278Z,39.00
2018-03-16T19:46:34.655Z,40.80
2018-03-16T19:49:03.073Z,40.70
2018-03-16T19:51:30.685Z,41.10
2018-03-16T19:53:58.341Z,42.00
2018-03-16T19:56:25.950Z,41.50
2018-03-16T19:58:53.912Z,42.90
2018-03-16T20:01:21.525Z,41.20
2018-03-16T20:03:50.177Z,39.00
2018-03-16T20:06:17.833Z,39.30
2018-03-16T20:08:45.494Z,38.90
2018-03-16T20:11:13.113Z,38.80
2018-03-16T20:13:40.802Z,38.90
2018-03-16T20:16:08.469Z,39.40
2018-03-16T20:18:36.134Z,39.60
2018-03-16T20:21:03.993Z,40.70
2018-03-16T20:23:31.610Z,41.80
2018-03-16T20:25:59.269Z,41.50
2018-03-16T20:28:26.893Z,41.70
2018-03-16T20:30:54.562Z,41.40
2018-03-16T20:33:22.254Z,39.80
2018-03-16T20:35:49.915Z,41.60
2018-03-16T20:38:17.534Z,41.80
2018-03-16T20:40:45.200Z,41.50
2018-03-16T20:43:13.581Z,41.50
2018-03-16T20:45:41.254Z,41.60
2018-03-16T20:48:10.901Z,40.50
2018-03-16T20:50:38.610Z,40.50
2018-03-16T20:53:06.357Z,41.50
2018-03-16T20:55:34.126Z,41.50
2018-03-16T20:58:01.966Z,42.50
2018-03-16T21:00:29.652Z,41.80
2018-03-16T21:02:57.267Z,41.50
2018-03-16T21:05:24.916Z,40.30
2018-03-16T21:07:52.524Z,41.40
2018-03-16T21:10:20.182Z,38.80
2018-03-16T21:12:47.933Z,36.60
2018-03-16T21:15:15.553Z,36.40
2018-03-16T21:17:43.212Z,37.90
2018-03-16T21:20:10.831Z,37.20
2018-03-16T21:22:39.169Z,38.50
2018-03-16T21:25:06.781Z,38.00
2018-03-16T21:27:34.441Z,37.80
2018-03-16T21:30:02.873Z,39.10
2018-03-16T21:32:30.533Z,39.60
2018-03-16T21:34:58.144Z,38.80
2018-03-16T21:37:25.812Z,38.40
2018-03-16T21:39:54.788Z,39.60
2018-03-16T21:42:23.218Z,39.30
2018-03-16T21:44:51.001Z,38.80
2018-03-16T21:47:19.072Z,38.30
2018-03-16T21:49:46.692Z,40.20
2018-03-16T21:52:14.305Z,39.90
2018-03-16T21:54:41.973Z,40.70
2018-03-16T21:57:09.814Z,38.60
2018-03-16T21:59:38.141Z,40.60
2018-03-16T22:02:06.525Z,41.20
2018-03-16T22:04:34.241Z,41.10
2018-03-16T22:07:02.092Z,37.40
2018-03-16T22:09:29.757Z,40.40
2018-03-16T22:11:57.531Z,40.30
2018-03-16T22:14:25.296Z,40.10
2018-03-16T22:16:52.902Z,39.70
2018-03-16T22:19:20.560Z,40.20
2018-03-16T22:21:48.177Z,41.30
2018-03-16T22:24:15.829Z,42.10
2018-03-16T22:26:43.928Z,42.70
2018-03-16T22:29:12.305Z,44.20
2018-03-16T22:31:40.726Z,47.50
2018-03-16T22:34:08.698Z,47.80
2018-03-16T22:36:36.912Z,46.90
2018-03-16T22:39:04.546Z,52.20
2018-03-16T22:41:32.197Z,55.60
2018-03-16T22:43:59.861Z,57.00
2018-03-16T22:46:27.749Z,56.80
2018-03-16T22:48:55.376Z,56.00
2018-03-16T22:51:22.997Z,53.90
2018-03-16T22:53:51.416Z,51.20
2018-03-16T22:56:19.029Z,51.20
2018-03-16T22:58:46.702Z,48.90
2018-03-16T23:01:14.319Z,47.40
2018-03-16T23:03:41.991Z,48.20
2018-03-16T23:06:09.601Z,47.90
2018-03-16T23:08:37.222Z,46.80
2018-03-16T23:11:04.902Z,49.10
2018-03-16T23:13:32.520Z,49.50
2018-03-16T23:16:00.132Z,49.30
2018-03-16T23:18:27.817Z,49.70
2018-03-16T23:20:55.433Z,50.10
2018-03-16T23:23:23.090Z,48.70
2018-03-16T23:25:50.706Z,47.80
2018-03-16T23:28:18.369Z,48.10
2018-03-16T23:30:45.976Z,47.40
2018-03-16T23:33:14.405Z,46.90
2018-03-16T23:35:42.014Z,45.50
2018-03-16T23:38:10.061Z,46.10
2018-03-16T23:40:37.681Z,47.00
2018-03-16T23:43:05.332Z,46.10
2018-03-16T23:45:33.005Z,46.50
2018-03-16T23:48:02.046Z,44.80
2018-03-16T23:50:29.701Z,44.70
2018-03-16T23:52:57.356Z,46.00
2018-03-16T23:55:25.192Z,44.40
2018-03-16T23:57:53.412Z,45.80
